createdAt,value
2018-03-30T00:00:13.253Z,7.90
2018-03-30T00:02:40.708Z,7.90
2018-03-30T00:05:08.156Z,7.80
2018-03-30T00:07:35.657Z,7.90
2018-03-30T00:10:03.157Z,7.90
2018-03-30T00:12:30.646Z,7.90
2018-03-30T00:14:58.098Z,7.90
2018-03-30T00:17:25.581Z,7.90
2018-03-30T00:19:53.081Z,7.90
2018-03-30T00:22:20.560Z,7.90
2018-03-30T00:24:48.018Z,7.90
2018-03-30T00:27:15.476Z,7.90
2018-03-30T00:29:42.949Z,7.90
2018-03-30T00:32:10.638Z,7.80
2018-03-30T00:34:39.952Z,7.80
2018-03-30T00:37:07.838Z,7.80
2018-03-30T00:39:35.358Z,7.80
2018-03-30T00:42:02.809Z,7.80
2018-03-30T00:44:30.307Z,7.80
2018-03-30T00:46:57.757Z,7.80
2018-03-30T00:49:25.222Z,7.80
2018-03-30T00:51:52.701Z,7.80
2018-03-30T00:54:20.213Z,7.80
2018-03-30T00:56:47.668Z,7.80
2018-03-30T00:59:15.124Z,7.80
2018-03-30T01:01:42.568Z,7.80
2018-03-30T01:04:10.042Z,7.80
2018-03-30T01:06:37.501Z,7.80
2018-03-30T01:09:05.020Z,7.90
2018-03-30T01:11:32.500Z,7.90
2018-03-30T01:13:59.954Z,7.90
2018-03-30T01:16:27.429Z,7.80
2018-03-30T01:18:54.893Z,7.80
2018-03-30T01:21:22.366Z,7.80
2018-03-30T01:23:49.820Z,7.80
2018-03-30T01:26:17.304Z,7.90
2018-03-30T01:28:44.754Z,7.90
2018-03-30T01:31:12.201Z,7.80
2018-03-30T01:33:39.673Z,7.80
2018-03-30T01:36:07.153Z,7.80
2018-03-30T01:38:34.689Z,7.80
2018-03-30T01:41:02.140Z,7.80
2018-03-30T01:43:29.604Z,7.80
2018-03-30T01:45:57.059Z,7.80
2018-03-30T01:48:24.528Z,7.80
2018-03-30T01:50:52.765Z,7.70
2018-03-30T01:53:20.236Z,7.70
2018-03-30T01:55:47.714Z,7.80
2018-03-30T01:58:15.196Z,7.80
2018-03-30T02:00:42.950Z,7.80
2018-03-30T02:03:11.166Z,7.80
2018-03-30T02:05:38.627Z,7.80
2018-03-30T02:08:06.082Z,7.80
2018-03-30T02:10:33.570Z,7.80
2018-03-30T02:13:01.030Z,7.70
2018-03-30T02:15:28.472Z,7.70
2018-03-30T02:17:56.036Z,7.70
2018-03-30T02:20:24.254Z,7.60
2018-03-30T02:22:51.697Z,7.60
2018-03-30T02:25:19.168Z,7.60
2018-03-30T02:27:46.679Z,7.60
2018-03-30T02:30:14.182Z,7.60
2018-03-30T02:32:42.428Z,7.60
2018-03-30T02:35:09.907Z,7.60
2018-03-30T02:37:37.357Z,7.60
2018-03-30T02:40:04.844Z,7.60
2018-03-30T02:42:33.061Z,7.60
2018-03-30T02:45:00.508Z,7.60
2018-03-30T02:47:27.985Z,7.70
2018-03-30T02:49:55.474Z,7.70
2018-03-30T02:52:22.917Z,7.70
2018-03-30T02:54:50.378Z,7.70
2018-03-30T02:57:17.881Z,7.70
2018-03-30T02:59:45.385Z,7.70
2018-03-30T03:02:12.851Z,7.70
2018-03-30T03:04:40.312Z,7.70
2018-03-30T03:07:07.789Z,7.70
2018-03-30T03:09:36.008Z,7.70
2018-03-30T03:12:03.477Z,7.70
2018-03-30T03:14:30.925Z,7.70
2018-03-30T03:16:58.404Z,7.70
2018-03-30T03:19:25.896Z,7.80
2018-03-30T03:21:53.365Z,7.80
2018-03-30T03:24:21.572Z,7.80
2018-03-30T03:26:49.060Z,7.80
2018-03-30T03:29:16.552Z,7.80
2018-03-30T03:31:44.777Z,7.70
2018-03-30T03:34:12.260Z,7.70
2018-03-30T03:36:39.709Z,7.70
2018-03-30T03:39:07.181Z,7.70
2018-03-30T03:41:34.641Z,7.70
2018-03-30T03:44:02.122Z,7.60
2018-03-30T03:46:30.360Z,7.60
2018-03-30T03:48:57.841Z,7.60
2018-03-30T03:51:25.313Z,7.60
2018-03-30T03:53:53.566Z,7.70
2018-03-30T03:56:21.069Z,7.70
2018-03-30T03:58:48.573Z,7.70
2018-03-30T04:01:16.098Z,7.60
2018-03-30T04:03:43.557Z,7.60
2018-03-30T04:06:11.046Z,7.70
2018-03-30T04:08:38.523Z,7.70
2018-03-30T04:11:05.964Z,7.60
2018-03-30T04:13:33.461Z,7.60
2018-03-30T04:16:01.690Z,7.60
2018-03-30T04:18:29.169Z,7.60
2018-03-30T04:20:56.649Z,7.60
2018-03-30T04:23:24.864Z,7.60
2018-03-30T04:25:52.337Z,7.60
2018-03-30T04:28:19.874Z,7.60
2018-03-30T04:30:47.357Z,7.60
2018-03-30T04:33:14.816Z,7.60
2018-03-30T04:35:42.274Z,7.60
2018-03-30T04:38:09.761Z,7.60
2018-03-30T04:40:37.224Z,7.50
2018-03-30T04:43:04.669Z,7.50
2018-03-30T04:45:32.301Z,7.50
2018-03-30T04:47:59.751Z,7.50
2018-03-30T04:50:27.253Z,7.50
2018-03-30T04:52:54.723Z,7.50
2018-03-30T04:55:22.937Z,7.50
2018-03-30T04:57:50.412Z,7.50
2018-03-30T05:00:17.930Z,7.50
2018-03-30T05:02:46.146Z,7.50
2018-03-30T05:05:14.384Z,7.50
2018-03-30T05:07:41.852Z,7.50
2018-03-30T05:10:09.352Z,7.50
2018-03-30T05:12:36.820Z,7.50
2018-03-30T05:15:04.272Z,7.50
2018-03-30T05:17:31.755Z,7.40
2018-03-30T05:19:59.212Z,7.40
2018-03-30T05:22:26.656Z,7.50
2018-03-30T05:24:54.157Z,7.50
2018-03-30T05:27:21.599Z,7.50
2018-03-30T05:29:49.906Z,7.50
2018-03-30T05:32:17.694Z,7.50
2018-03-30T05:34:45.166Z,7.50
2018-03-30T05:37:13.449Z,7.50
2018-03-30T05:39:40.934Z,7.50
2018-03-30T05:42:09.172Z,7.50
2018-03-30T05:44:36.648Z,7.50
2018-03-30T05:47:04.100Z,7.50
2018-03-30T05:49:32.662Z,7.50
2018-03-30T05:52:00.129Z,7.50
2018-03-30T05:54:27.580Z,7.50
2018-03-30T05:56:55.054Z,7.50
2018-03-30T05:59:22.509Z,7.50
2018-03-30T06:01:49.984Z,7.50
2018-03-30T06:04:17.469Z,7.50
2018-03-30T06:06:44.964Z,7.50
2018-03-30T06:09:12.408Z,7.50
2018-03-30T06:11:39.866Z,7.60
2018-03-30T06:14:07.331Z,7.50
2018-03-30T06:16:34.794Z,7.50
2018-03-30T06:19:02.349Z,7.50
2018-03-30T06:21:29.812Z,7.50
2018-03-30T06:23:57.281Z,7.50
2018-03-30T06:26:24.742Z,7.60
2018-03-30T06:28:52.217Z,7.60
2018-03-30T06:31:19.673Z,7.70
2018-03-30T06:33:47.164Z,7.70
2018-03-30T06:36:14.644Z,7.70
2018-03-30T06:38:42.120Z,7.80
2018-03-30T06:41:09.575Z,7.90
2018-03-30T06:43:37.060Z,7.90
2018-03-30T06:46:04.576Z,7.90
2018-03-30T06:48:32.132Z,7.90
2018-03-30T06:50:59.653Z,7.90
2018-03-30T06:53:27.203Z,8.00
2018-03-30T06:55:54.774Z,8.00
2018-03-30T06:58:23.193Z,8.10
2018-03-30T07:00:50.737Z,8.10
2018-03-30T07:03:19.004Z,8.20
2018-03-30T07:05:47.214Z,8.20
2018-03-30T07:08:14.872Z,8.10
2018-03-30T07:10:42.561Z,8.20
2018-03-30T07:13:11.030Z,8.30
2018-03-30T07:15:38.995Z,8.30
2018-03-30T07:18:06.528Z,8.50
2018-03-30T07:20:34.088Z,8.60
2018-03-30T07:23:02.492Z,9.00
2018-03-30T07:25:29.992Z,9.00
2018-03-30T07:27:57.682Z,9.10
2018-03-30T07:30:25.232Z,9.10
2018-03-30T07:32:52.995Z,9.00
2018-03-30T07:35:20.633Z,9.10
2018-03-30T07:37:48.140Z,9.00
2018-03-30T07:40:15.932Z,9.00
2018-03-30T07:42:43.702Z,9.00
2018-03-30T07:45:11.252Z,9.00
2018-03-30T07:47:38.767Z,9.10
2018-03-30T07:50:06.505Z,9.20
2018-03-30T07:52:34.869Z,9.40
2018-03-30T07:55:02.354Z,9.30
2018-03-30T07:57:29.854Z,9.40
2018-03-30T07:59:57.720Z,9.50
2018-03-30T08:02:25.227Z,9.50
2018-03-30T08:04:52.699Z,9.50
2018-03-30T08:07:21.108Z,9.50
2018-03-30T08:09:48.659Z,9.60
2018-03-30T08:12:16.925Z,9.80
2018-03-30T08:14:44.393Z,9.80
2018-03-30T08:17:11.833Z,9.90
2018-03-30T08:19:39.312Z,10.10
2018-03-30T08:22:07.561Z,10.30
2018-03-30T08:24:35.009Z,10.30
2018-03-30T08:27:02.635Z,10.40
2018-03-30T08:29:30.117Z,10.60
2018-03-30T08:31:57.563Z,10.70
2018-03-30T08:34:25.032Z,10.90
2018-03-30T08:36:53.249Z,11.30
2018-03-30T08:39:21.201Z,11.20
2018-03-30T08:41:48.894Z,11.30
2018-03-30T08:44:16.691Z,11.40
2018-03-30T08:46:44.275Z,11.50
2018-03-30T08:49:12.818Z,11.70
2018-03-30T08:51:40.313Z,11.70
2018-03-30T08:54:07.890Z,11.70
2018-03-30T08:56:35.485Z,11.60
2018-03-30T08:59:03.916Z,11.60
2018-03-30T09:01:32.228Z,11.70
2018-03-30T09:03:59.899Z,11.60
2018-03-30T09:06:27.378Z,11.70
2018-03-30T09:08:54.857Z,11.60
2018-03-30T09:11:22.417Z,11.60
2018-03-30T09:13:50.010Z,11.60
2018-03-30T09:16:18.021Z,11.60
2018-03-30T09:18:45.855Z,11.60
2018-03-30T09:21:14.145Z,11.70
2018-03-30T09:23:41.702Z,11.70
2018-03-30T09:26:09.298Z,11.70
2018-03-30T09:28:36.778Z,11.80
2018-03-30T09:31:04.298Z,11.90
2018-03-30T09:33:33.520Z,12.10
2018-03-30T09:36:01.432Z,12.10
2018-03-30T09:38:28.920Z,12.20
2018-03-30T09:40:57.176Z,12.20
2018-03-30T09:43:24.867Z,12.20
2018-03-30T09:45:52.511Z,12.30
2018-03-30T09:48:21.023Z,12.50
2018-03-30T09:50:48.544Z,12.50
2018-03-30T09:53:16.132Z,12.50
2018-03-30T09:55:44.698Z,12.70
2018-03-30T09:58:12.358Z,12.60
2018-03-30T10:00:48.912Z,12.80
2018-03-30T10:03:16.529Z,12.90
2018-03-30T10:05:44.171Z,12.90
2018-03-30T10:08:12.626Z,13.00
2018-03-30T10:10:40.869Z,13.20
2018-03-30T10:13:08.594Z,13.40
2018-03-30T10:15:36.354Z,13.50
2018-03-30T10:18:04.824Z,13.80
2018-03-30T10:20:32.332Z,13.80
2018-03-30T10:22:59.809Z,14.00
2018-03-30T10:25:27.280Z,14.20
2018-03-30T10:27:54.775Z,14.40
2018-03-30T10:30:22.240Z,14.60
2018-03-30T10:32:50.473Z,14.90
2018-03-30T10:35:17.929Z,14.90
2018-03-30T10:37:45.406Z,15.00
2018-03-30T10:40:12.866Z,15.10
2018-03-30T10:42:40.329Z,15.30
2018-03-30T10:45:07.782Z,15.40
2018-03-30T10:47:35.269Z,15.50
2018-03-30T10:50:03.487Z,15.60
2018-03-30T10:52:30.971Z,15.60
2018-03-30T10:54:58.421Z,15.60
2018-03-30T11:00:06.517Z,15.60
2018-03-30T11:02:34.003Z,15.60
2018-03-30T11:05:01.456Z,15.50
2018-03-30T11:07:28.932Z,15.50
2018-03-30T11:09:56.409Z,15.50
2018-03-30T11:12:24.654Z,15.70
2018-03-30T11:14:52.106Z,15.70
2018-03-30T11:17:19.577Z,15.90
2018-03-30T11:19:47.042Z,16.10
2018-03-30T11:22:14.500Z,16.20
2018-03-30T11:24:41.991Z,16.30
2018-03-30T11:27:10.261Z,16.40
2018-03-30T11:29:38.506Z,16.60
2018-03-30T11:32:05.959Z,16.50
2018-03-30T11:34:33.435Z,16.60
2018-03-30T11:37:00.882Z,16.70
2018-03-30T11:39:28.352Z,16.60
2018-03-30T11:41:55.820Z,16.50
2018-03-30T11:44:24.038Z,16.30
2018-03-30T11:46:51.516Z,16.30
2018-03-30T11:49:19.820Z,16.20
2018-03-30T11:51:47.260Z,16.10
2018-03-30T11:54:14.741Z,16.00
2018-03-30T11:56:42.984Z,15.80
2018-03-30T11:59:10.473Z,15.70
2018-03-30T12:01:37.943Z,15.80
2018-03-30T12:04:06.161Z,15.80
2018-03-30T12:06:33.642Z,15.80
2018-03-30T12:09:01.089Z,15.80
2018-03-30T12:11:28.569Z,15.70
2018-03-30T12:13:56.016Z,15.70
2018-03-30T12:16:23.469Z,15.80
2018-03-30T12:18:50.986Z,15.80
2018-03-30T12:21:18.436Z,15.80
2018-03-30T12:23:45.889Z,15.80
2018-03-30T12:26:14.129Z,15.90
2018-03-30T12:28:41.590Z,15.90
2018-03-30T12:31:09.056Z,16.00
2018-03-30T12:33:36.524Z,16.10
2018-03-30T12:36:04.743Z,16.20
2018-03-30T12:38:32.217Z,16.20
2018-03-30T12:41:00.517Z,16.40
2018-03-30T12:43:27.888Z,16.40
2018-03-30T12:45:55.360Z,16.50
2018-03-30T12:48:23.582Z,16.80
2018-03-30T12:50:51.052Z,16.80
2018-03-30T12:53:18.510Z,16.90
2018-03-30T12:55:45.986Z,17.10
2018-03-30T12:58:13.432Z,17.20
2018-03-30T13:00:40.917Z,17.40
2018-03-30T13:03:08.362Z,17.40
2018-03-30T13:05:35.818Z,17.50
2018-03-30T13:08:03.294Z,17.50
2018-03-30T13:10:31.529Z,17.70
2018-03-30T13:12:59.005Z,17.70
2018-03-30T13:15:26.448Z,17.80
2018-03-30T13:17:53.932Z,18.00
2018-03-30T13:20:21.380Z,18.10
2018-03-30T13:22:48.864Z,18.20
2018-03-30T13:25:16.328Z,18.40
2018-03-30T13:27:43.811Z,18.60
2018-03-30T13:30:11.269Z,18.70
2018-03-30T13:32:38.734Z,19.00
2018-03-30T13:35:06.206Z,19.20
2018-03-30T13:37:33.653Z,19.70
2018-03-30T13:40:01.198Z,20.50
2018-03-30T13:42:28.660Z,21.50
2018-03-30T13:44:56.136Z,22.20
2018-03-30T13:47:23.596Z,22.60
2018-03-30T13:49:51.053Z,22.90
2018-03-30T13:52:29.133Z,23.40
2018-03-30T13:54:57.521Z,24.00
2018-03-30T14:00:22.005Z,25.20
2018-03-30T14:02:53.006Z,25.80
2018-03-30T14:05:32.964Z,25.80
2018-03-30T14:08:08.681Z,25.80
2018-03-30T14:10:51.813Z,26.00
2018-03-30T14:13:19.284Z,26.10
2018-03-30T14:15:50.168Z,26.00
2018-03-30T14:18:28.106Z,25.80
2018-03-30T14:20:56.488Z,25.80
2018-03-30T14:26:20.539Z,25.80
2018-03-30T14:28:48.801Z,25.60
2018-03-30T14:31:20.023Z,25.50
2018-03-30T14:33:47.533Z,25.20
2018-03-30T14:36:23.909Z,25.20
2018-03-30T14:38:53.117Z,25.30
2018-03-30T14:41:20.620Z,25.30
2018-03-30T14:43:50.845Z,25.40
2018-03-30T14:46:19.992Z,25.50
2018-03-30T14:48:52.922Z,25.60
2018-03-30T14:51:23.910Z,25.80
2018-03-30T14:53:54.567Z,25.50
2018-03-30T14:56:22.976Z,25.50
2018-03-30T14:58:51.245Z,25.30
2018-03-30T15:01:19.497Z,25.10
2018-03-30T15:04:00.317Z,24.90
2018-03-30T15:06:33.287Z,24.70
2018-03-30T15:09:16.773Z,24.40
2018-03-30T15:12:00.692Z,24.10
2018-03-30T15:14:30.954Z,23.50
2018-03-30T15:17:15.062Z,23.00
2018-03-30T15:19:42.529Z,22.50
2018-03-30T15:25:17.781Z,21.90
2018-03-30T15:27:51.797Z,21.80
2018-03-30T15:30:29.788Z,21.50
2018-03-30T15:36:24.318Z,20.90
2018-03-30T15:38:51.772Z,20.60
2018-03-30T15:41:21.128Z,20.10
2018-03-30T15:43:48.615Z,20.10
2018-03-30T15:46:23.866Z,19.50
2018-03-30T15:48:51.608Z,19.50
2018-03-30T15:51:23.760Z,19.20
2018-03-30T15:53:50.731Z,18.90
2018-03-30T15:56:18.462Z,18.60
2018-03-30T15:58:45.976Z,18.50
2018-03-30T16:01:13.503Z,18.30
2018-03-30T16:03:41.021Z,18.10
2018-03-30T16:06:08.501Z,18.00
2018-03-30T16:08:35.955Z,17.80
2018-03-30T16:11:05.346Z,17.70
2018-03-30T16:13:32.849Z,17.50
2018-03-30T16:16:00.686Z,17.30
2018-03-30T16:18:39.949Z,17.20
2018-03-30T16:21:06.908Z,17.10
2018-03-30T16:23:33.903Z,17.00
2018-03-30T16:26:00.983Z,16.90
2018-03-30T16:28:27.957Z,16.80
2018-03-30T16:30:55.044Z,16.80
2018-03-30T16:33:22.320Z,16.60
2018-03-30T16:35:49.362Z,16.50
2018-03-30T16:38:16.316Z,16.40
2018-03-30T16:40:43.344Z,16.30
2018-03-30T16:43:10.286Z,16.20
2018-03-30T16:45:37.459Z,16.10
2018-03-30T16:48:05.274Z,16.00
2018-03-30T16:50:32.234Z,15.90
2018-03-30T16:53:00.084Z,15.90
2018-03-30T16:55:27.086Z,15.80
2018-03-30T16:57:54.053Z,15.80
2018-03-30T17:00:21.016Z,15.80
2018-03-30T17:02:47.997Z,15.70
2018-03-30T17:05:14.989Z,15.60
2018-03-30T17:07:41.960Z,15.50
2018-03-30T17:10:08.993Z,15.40
2018-03-30T17:12:36.112Z,15.40
2018-03-30T17:15:03.104Z,15.30
2018-03-30T17:17:30.061Z,15.20
2018-03-30T17:19:57.823Z,15.10
2018-03-30T17:22:24.779Z,15.10
2018-03-30T17:24:52.529Z,14.90
2018-03-30T17:27:19.481Z,14.90
2018-03-30T17:29:46.473Z,14.90
2018-03-30T17:32:13.429Z,14.90
2018-03-30T17:34:40.426Z,14.80
2018-03-30T17:37:08.161Z,14.70
2018-03-30T17:39:35.141Z,14.70
2018-03-30T17:42:02.894Z,14.60
2018-03-30T17:44:29.886Z,14.60
2018-03-30T17:46:56.843Z,14.60
2018-03-30T17:49:23.796Z,14.60
2018-03-30T17:51:50.781Z,14.50
2018-03-30T17:54:18.425Z,14.50
2018-03-30T17:56:45.393Z,14.40
2018-03-30T17:59:12.437Z,14.40
2018-03-30T18:01:39.393Z,14.30
2018-03-30T18:04:07.128Z,14.20
2018-03-30T18:06:34.114Z,14.20
2018-03-30T18:09:01.889Z,14.10
2018-03-30T18:11:28.887Z,14.10
2018-03-30T18:13:55.865Z,14.00
2018-03-30T18:16:23.589Z,14.00
2018-03-30T18:18:50.598Z,13.90
2018-03-30T18:21:17.595Z,13.90
2018-03-30T18:23:44.594Z,13.80
2018-03-30T18:26:11.574Z,13.80
2018-03-30T18:28:38.562Z,13.70
2018-03-30T18:31:06.294Z,13.60
2018-03-30T18:33:33.293Z,13.60
2018-03-30T18:36:00.268Z,13.50
2018-03-30T18:38:27.362Z,13.50
2018-03-30T18:40:54.311Z,13.40
2018-03-30T18:43:21.301Z,13.40
2018-03-30T18:45:48.275Z,13.30
2018-03-30T18:48:15.278Z,13.30
2018-03-30T18:50:42.236Z,13.30
2018-03-30T18:53:09.212Z,13.30
2018-03-30T18:55:36.198Z,13.30
2018-03-30T18:58:03.960Z,13.30
2018-03-30T19:00:31.188Z,13.30
2018-03-30T19:02:58.449Z,13.30
2018-03-30T19:05:25.654Z,13.30
2018-03-30T19:07:52.732Z,13.20
2018-03-30T19:10:19.709Z,13.20
2018-03-30T19:12:46.757Z,13.20
2018-03-30T19:15:14.509Z,13.20
2018-03-30T19:17:41.541Z,13.20
2018-03-30T19:20:08.560Z,13.20
2018-03-30T19:22:35.506Z,13.10
2018-03-30T19:25:02.535Z,13.10
2018-03-30T19:27:29.753Z,13.10
2018-03-30T19:29:56.864Z,13.10
2018-03-30T19:32:24.008Z,13.10
2018-03-30T19:34:51.017Z,13.00
2018-03-30T19:37:18.207Z,13.00
2018-03-30T19:39:45.203Z,13.00
2018-03-30T19:42:12.472Z,13.00
2018-03-30T19:44:39.499Z,13.00
2018-03-30T19:47:07.298Z,13.00
2018-03-30T19:49:34.304Z,13.00
2018-03-30T19:52:01.635Z,13.00
2018-03-30T19:54:28.911Z,13.00
2018-03-30T19:56:55.903Z,13.00
2018-03-30T19:59:23.088Z,13.00
2018-03-30T20:01:50.288Z,13.00
2018-03-30T20:04:18.309Z,13.00
2018-03-30T20:06:45.308Z,13.00
2018-03-30T20:09:12.370Z,13.00
2018-03-30T20:11:39.697Z,13.00
2018-03-30T20:14:06.872Z,13.00
2018-03-30T20:16:33.868Z,13.00
2018-03-30T20:19:00.852Z,12.90
2018-03-30T20:21:28.769Z,12.90
2018-03-30T20:23:55.819Z,12.80
2018-03-30T20:26:23.262Z,12.80
2018-03-30T20:28:50.393Z,12.70
2018-03-30T20:31:17.877Z,12.70
2018-03-30T20:33:44.904Z,12.60
2018-03-30T20:36:12.640Z,12.50
2018-03-30T20:38:39.716Z,12.50
2018-03-30T20:41:06.766Z,12.50
2018-03-30T20:43:33.792Z,12.40
2018-03-30T20:46:00.804Z,12.20
2018-03-30T20:48:27.805Z,12.20
2018-03-30T20:50:54.768Z,12.10
2018-03-30T20:53:21.743Z,12.10
2018-03-30T20:55:49.548Z,12.00
2018-03-30T20:58:16.776Z,11.90
2018-03-30T21:00:43.787Z,12.00
2018-03-30T21:03:10.969Z,11.90
2018-03-30T21:05:37.961Z,11.90
2018-03-30T21:08:05.053Z,11.90
2018-03-30T21:10:32.242Z,11.80
2018-03-30T21:12:59.257Z,11.80
2018-03-30T21:15:26.589Z,11.80
2018-03-30T21:17:53.589Z,11.70
2018-03-30T21:20:20.578Z,11.60
2018-03-30T21:22:47.575Z,11.50
2018-03-30T21:25:15.645Z,11.30
2018-03-30T21:27:43.750Z,11.20
2018-03-30T21:30:10.937Z,11.20
2018-03-30T21:32:38.232Z,11.10
2018-03-30T21:35:05.496Z,11.10
2018-03-30T21:37:32.551Z,11.10
2018-03-30T21:39:59.540Z,11.00
2018-03-30T21:42:26.496Z,11.10
2018-03-30T21:44:53.464Z,11.10
2018-03-30T21:47:20.433Z,11.20
2018-03-30T21:49:48.249Z,11.10
2018-03-30T21:52:15.208Z,11.10
2018-03-30T21:54:42.194Z,11.10
2018-03-30T21:57:09.956Z,11.10
2018-03-30T21:59:36.920Z,11.10
2018-03-30T22:02:04.653Z,11.00
2018-03-30T22:04:31.661Z,11.00
2018-03-30T22:06:58.624Z,11.00
2018-03-30T22:09:25.602Z,11.00
2018-03-30T22:11:52.619Z,11.00
2018-03-30T22:14:19.604Z,11.00
2018-03-30T22:16:47.358Z,11.00
2018-03-30T22:19:14.445Z,11.00
2018-03-30T22:21:41.433Z,11.00
2018-03-30T22:24:08.399Z,11.00
2018-03-30T22:26:35.391Z,11.00
2018-03-30T22:29:02.351Z,11.00
2018-03-30T22:31:29.314Z,11.00
2018-03-30T22:33:56.312Z,11.00
2018-03-30T22:36:24.036Z,10.90
2018-03-30T22:38:51.002Z,10.90
2018-03-30T22:41:17.985Z,10.90
2018-03-30T22:43:44.981Z,10.90
2018-03-30T22:46:11.964Z,10.80
2018-03-30T22:48:39.021Z,10.80
2018-03-30T22:51:05.985Z,10.80
2018-03-30T22:53:32.970Z,10.80
2018-03-30T22:55:59.934Z,10.80
2018-03-30T22:58:27.685Z,10.80
2018-03-30T23:00:54.650Z,10.80
2018-03-30T23:03:22.413Z,10.70
2018-03-30T23:05:49.401Z,10.70
2018-03-30T23:08:16.369Z,10.70
2018-03-30T23:10:43.365Z,10.60
2018-03-30T23:13:11.106Z,10.60
2018-03-30T23:15:38.100Z,10.60
2018-03-30T23:18:05.068Z,10.60
2018-03-30T23:20:32.073Z,10.50
2018-03-30T23:22:59.824Z,10.50
2018-03-30T23:25:26.781Z,10.40
2018-03-30T23:27:54.533Z,10.50
2018-03-30T23:30:21.493Z,10.40
2018-03-30T23:32:49.248Z,10.50
2018-03-30T23:35:16.996Z,10.50
2018-03-30T23:37:43.964Z,10.50
2018-03-30T23:40:11.052Z,10.50
2018-03-30T23:42:38.029Z,10.60
2018-03-30T23:45:05.021Z,10.60
2018-03-30T23:47:32.017Z,10.60
2018-03-30T23:49:59.001Z,10.50
2018-03-30T23:52:25.964Z,10.50
2018-03-30T23:54:52.958Z,10.50
2018-03-30T23:57:19.945Z,10.50
2018-03-30T23:59:46.929Z,10.50
